Hensley, Arkansas
Current Conditions -  °F | °C
As of 2:53 PM on Saturday 20 Dec 2014 (Local Time) from KLIT Reporting Station
Broken Clouds Broken Clouds  
Wind Chill: 50°   Ceiling: 5000
Heat Index: 50°   Visibility: 10mi
Dew Point: 34°   Wind: 3mph
Humidity: 54%   Direction: 70°ENE
Pressure: 30.22"   Gusts: NA
Location:  34.51°N, 92.21°W
Report Text: KLIT 202053Z 07003KT 10SM BKN050 10/01 A3022 RMK AO2 SLP235 T01000011 56019
Loading
Personal Weather Stations






























Interactive Weather Map New forecast layout! Learn more

10-Day Weather Forecast

Advertisements
Track Severe Weather on mobile